Time;durP1;ratioP1;P1;durP2;ratioP2;P2;SDS_P1;SDS_P2;PMS_P1;PMS_P2;Temp;Humidity;BMP_temperature;BMP_pressure;BME280_temperature;BME280_humidity;BME280_pressure;Samples;Min_cycle;Max_cycle;Signal;HPM_P1;HPM_P2
2022/02/22 00:01:43;;;;;;;2.25;0.98;;;;;;;;;;5072276;28;20025;-39
2022/02/22 00:04:09;;;;;;;2.40;0.88;;;;;;;;;;5072481;28;20482;-39
2022/02/22 00:06:34;;;;;;;2.28;0.90;;;;;;;;;;5072502;28;20095;-39
2022/02/22 00:09:00;;;;;;;4.28;1.15;;;;;;;;;;5072169;28;20036;-39
2022/02/22 00:11:26;;;;;;;0.98;0.77;;;;;;;;;;5072277;28;20085;-39
2022/02/22 00:13:52;;;;;;;1.45;1.35;;;;;;;;;;5072536;28;20382;-40
2022/02/22 00:16:18;;;;;;;1.70;0.60;;;;;;;;;;5072134;28;20463;-39
2022/02/22 00:18:44;;;;;;;0.95;0.75;;;;;;;;;;5072134;28;20044;-39
2022/02/22 00:21:09;;;;;;;1.02;0.80;;;;;;;;;;5072117;28;20024;-39
2022/02/22 00:23:34;;;;;;;1.00;0.85;;;;;;;;;;5072258;28;20047;-39
2022/02/22 00:26:00;;;;;;;1.40;1.20;;;;;;;;;;5071963;28;20021;-39
2022/02/22 00:28:25;;;;;;;1.35;1.00;;;;;;;;;;5072220;28;20028;-39
2022/02/22 00:30:51;;;;;;;1.73;1.08;;;;;;;;;;5071852;28;20406;-39
2022/02/22 00:33:17;;;;;;;2.08;0.90;;;;;;;;;;5072281;28;20440;-39
2022/02/22 00:35:42;;;;;;;0.95;0.93;;;;;;;;;;5072118;28;20441;-39
2022/02/22 00:38:08;;;;;;;2.30;1.35;;;;;;;;;;5072006;28;20528;-38
2022/02/22 00:40:34;;;;;;;1.83;1.15;;;;;;;;;;5071736;28;20025;-39
2022/02/22 00:42:59;;;;;;;3.17;1.13;;;;;;;;;;5071962;28;20032;-39
2022/02/22 00:45:26;;;;;;;1.00;0.93;;;;;;;;;;5071659;28;20427;-39
2022/02/22 00:47:51;;;;;;;0.98;0.98;;;;;;;;;;5071888;28;20363;-39
2022/02/22 00:50:17;;;;;;;1.33;0.93;;;;;;;;;;5071916;28;20031;-39
2022/02/22 00:52:43;;;;;;;3.15;0.82;;;;;;;;;;5071888;28;20498;-38
2022/02/22 00:55:09;;;;;;;1.00;0.90;;;;;;;;;;5071876;28;20091;-39
2022/02/22 00:57:36;;;;;;;1.90;1.30;;;;;;;;;;5071808;28;20561;-39
2022/02/22 01:00:03;;;;;;;1.02;0.93;;;;;;;;;;5071621;28;20413;-39
2022/02/22 01:02:28;;;;;;;0.45;0.40;;;;;;;;;;5071477;28;20078;-39
2022/02/22 01:04:53;;;;;;;1.80;0.60;;;;;;;;;;5071431;28;20040;-39
2022/02/22 01:07:20;;;;;;;1.75;1.02;;;;;;;;;;5071679;28;20467;-39
2022/02/22 01:09:46;;;;;;;1.20;0.55;;;;;;;;;;5071610;28;20104;-39
2022/02/22 01:12:12;;;;;;;1.00;0.77;;;;;;;;;;5071581;28;20123;-39
2022/02/22 01:14:38;;;;;;;1.15;0.85;;;;;;;;;;5070625;28;20028;-39
2022/02/22 01:17:03;;;;;;;0.80;0.80;;;;;;;;;;5071580;28;20048;-39
2022/02/22 01:19:29;;;;;;;1.80;0.73;;;;;;;;;;5071501;28;20490;-39
2022/02/22 01:21:54;;;;;;;0.45;0.45;;;;;;;;;;5071133;28;20386;-39
2022/02/22 01:24:20;;;;;;;2.33;1.10;;;;;;;;;;5071214;28;20028;-38
2022/02/22 01:26:45;;;;;;;1.17;0.75;;;;;;;;;;5071212;28;20419;-39
2022/02/22 01:29:10;;;;;;;2.25;0.80;;;;;;;;;;5071431;28;20024;-44
2022/02/22 01:31:36;;;;;;;0.80;0.73;;;;;;;;;;5070906;28;20403;-39
2022/02/22 01:34:01;;;;;;;0.70;0.70;;;;;;;;;;5071350;28;20166;-39
2022/02/22 01:36:27;;;;;;;0.88;0.68;;;;;;;;;;5071339;28;20028;-39
2022/02/22 01:38:53;;;;;;;0.70;0.70;;;;;;;;;;5069812;28;20387;-39
2022/02/22 01:41:21;;;;;;;3.20;1.00;;;;;;;;;;5071056;28;20160;-39
2022/02/22 01:43:47;;;;;;;0.75;0.75;;;;;;;;;;5071024;28;20024;-39
2022/02/22 01:46:13;;;;;;;1.73;0.80;;;;;;;;;;5071148;28;20509;-39
2022/02/22 01:48:38;;;;;;;0.95;0.70;;;;;;;;;;5071244;28;20028;-39
2022/02/22 01:51:04;;;;;;;1.75;1.40;;;;;;;;;;5071105;28;20029;-39
2022/02/22 01:53:29;;;;;;;3.22;1.10;;;;;;;;;;5071306;28;20032;-39
2022/02/22 01:55:55;;;;;;;1.20;1.08;;;;;;;;;;5070742;28;20064;-39
2022/02/22 01:58:20;;;;;;;1.27;1.15;;;;;;;;;;5070944;28;20036;-39
2022/02/22 02:00:46;;;;;;;2.83;1.42;;;;;;;;;;5071056;28;20082;-39
2022/02/22 02:03:17;;;;;;;1.50;0.82;;;;;;;;;;5071134;28;20473;-39
2022/02/22 02:05:43;;;;;;;0.73;0.70;;;;;;;;;;5071153;28;20105;-39
2022/02/22 02:08:08;;;;;;;1.30;1.08;;;;;;;;;;5070685;28;20463;-39
2022/02/22 02:10:34;;;;;;;2.88;0.98;;;;;;;;;;5070759;28;20036;-38
2022/02/22 02:12:59;;;;;;;1.40;0.93;;;;;;;;;;5071038;28;20074;-39
2022/02/22 02:15:25;;;;;;;1.88;0.75;;;;;;;;;;5071023;28;20040;-39
2022/02/22 02:17:50;;;;;;;5.53;1.13;;;;;;;;;;5070715;28;20343;-39
2022/02/22 02:20:15;;;;;;;1.63;1.00;;;;;;;;;;5070596;28;20041;-39
2022/02/22 02:22:43;;;;;;;1.40;1.00;;;;;;;;;;5071028;28;20027;-39
2022/02/22 02:25:09;;;;;;;1.05;0.98;;;;;;;;;;5071279;28;20422;-39
2022/02/22 02:27:34;;;;;;;2.45;1.05;;;;;;;;;;5074578;28;20013;-39
2022/02/22 02:30:00;;;;;;;2.05;0.65;;;;;;;;;;5074508;28;20028;-39
2022/02/22 02:32:26;;;;;;;0.68;0.65;;;;;;;;;;5073941;28;20049;-39
2022/02/22 02:34:52;;;;;;;1.45;1.33;;;;;;;;;;5074103;28;20032;-39
2022/02/22 02:37:17;;;;;;;2.72;1.42;;;;;;;;;;5074467;28;20031;-39
2022/02/22 02:39:43;;;;;;;1.42;1.25;;;;;;;;;;5074332;28;20028;-39
2022/02/22 02:42:08;;;;;;;1.17;1.08;;;;;;;;;;5074085;28;20369;-39
2022/02/22 02:44:34;;;;;;;1.05;0.80;;;;;;;;;;5073980;28;20040;-39
2022/02/22 02:46:59;;;;;;;1.73;0.90;;;;;;;;;;5074118;28;20044;-39
2022/02/22 02:49:25;;;;;;;2.63;1.02;;;;;;;;;;5074259;28;20109;-39
2022/02/22 02:51:51;;;;;;;5.45;1.15;;;;;;;;;;5073804;28;20016;-39
2022/02/22 02:54:16;;;;;;;0.73;0.60;;;;;;;;;;5074159;28;20494;-39
2022/02/22 02:56:41;;;;;;;2.50;0.75;;;;;;;;;;5074189;28;20488;-39
2022/02/22 02:59:08;;;;;;;1.35;0.73;;;;;;;;;;5073991;28;20032;-39
2022/02/22 03:01:34;;;;;;;2.05;1.10;;;;;;;;;;5073879;28;20024;-39
2022/02/22 03:04:00;;;;;;;0.60;0.60;;;;;;;;;;5073794;28;20051;-39
2022/02/22 03:06:26;;;;;;;1.10;0.68;;;;;;;;;;5073939;28;20024;-39
2022/02/22 03:08:52;;;;;;;1.02;0.75;;;;;;;;;;5073572;28;20025;-39
2022/02/22 03:11:17;;;;;;;3.00;1.35;;;;;;;;;;5073775;28;20073;-39
2022/02/22 03:13:43;;;;;;;2.20;0.95;;;;;;;;;;5073581;28;20056;-39
2022/02/22 03:16:08;;;;;;;3.95;1.55;;;;;;;;;;5073304;28;20028;-39
2022/02/22 03:18:34;;;;;;;1.88;1.30;;;;;;;;;;5073478;28;20165;-39
2022/02/22 03:21:00;;;;;;;1.77;0.82;;;;;;;;;;5073430;28;20042;-39
2022/02/22 03:23:25;;;;;;;1.63;1.05;;;;;;;;;;5073231;28;20028;-39
2022/02/22 03:25:51;;;;;;;1.80;0.98;;;;;;;;;;5073249;28;20028;-39
2022/02/22 03:28:16;;;;;;;1.15;1.02;;;;;;;;;;5073447;28;20024;-39
2022/02/22 03:30:42;;;;;;;1.40;1.10;;;;;;;;;;5072795;28;20049;-41
2022/02/22 03:33:11;;;;;;;1.45;0.77;;;;;;;;;;5073152;28;20098;-39
2022/02/22 03:35:36;;;;;;;1.25;0.90;;;;;;;;;;5073001;28;20024;-39
2022/02/22 03:38:02;;;;;;;1.92;1.10;;;;;;;;;;5072226;28;20041;-39
2022/02/22 03:40:27;;;;;;;1.15;1.00;;;;;;;;;;5072960;28;20452;-39
2022/02/22 03:42:53;;;;;;;1.67;1.10;;;;;;;;;;5073086;28;20071;-39
2022/02/22 03:45:18;;;;;;;1.80;0.98;;;;;;;;;;5072890;28;20028;-39
2022/02/22 03:47:44;;;;;;;0.88;0.70;;;;;;;;;;5072763;28;20060;-39
2022/02/22 03:50:10;;;;;;;1.45;0.90;;;;;;;;;;5072697;28;20024;-39
2022/02/22 03:52:36;;;;;;;0.98;0.75;;;;;;;;;;5072807;28;20021;-39
2022/02/22 03:55:01;;;;;;;2.15;1.05;;;;;;;;;;5072656;28;20398;-39
2022/02/22 03:57:28;;;;;;;1.15;0.90;;;;;;;;;;5072948;28;20021;-39
2022/02/22 03:59:53;;;;;;;0.95;0.85;;;;;;;;;;5072708;28;20025;-39
2022/02/22 04:02:18;;;;;;;1.02;0.80;;;;;;;;;;5072860;28;20348;-39
2022/02/22 04:04:44;;;;;;;1.98;0.70;;;;;;;;;;5072729;28;20044;-39
2022/02/22 04:07:09;;;;;;;0.95;0.93;;;;;;;;;;5072579;28;20020;-39
2022/02/22 04:09:34;;;;;;;0.82;0.80;;;;;;;;;;5071157;28;20652;-39
2022/02/22 04:12:00;;;;;;;1.40;1.27;;;;;;;;;;5072492;28;20024;-39
2022/02/22 04:14:25;;;;;;;1.65;0.90;;;;;;;;;;5072271;28;20466;-39
2022/02/22 04:16:50;;;;;;;0.63;0.63;;;;;;;;;;5072262;28;20086;-39
2022/02/22 04:19:16;;;;;;;2.13;1.20;;;;;;;;;;5072205;28;20024;-39
2022/02/22 04:21:42;;;;;;;1.38;1.27;;;;;;;;;;5072396;28;20033;-39
2022/02/22 04:24:07;;;;;;;0.80;0.75;;;;;;;;;;5071993;28;20031;-39
2022/02/22 04:26:33;;;;;;;0.85;0.85;;;;;;;;;;5072029;28;20033;-39
2022/02/22 04:29:00;;;;;;;2.13;0.77;;;;;;;;;;5072043;28;20024;-39
2022/02/22 04:31:26;;;;;;;0.98;0.75;;;;;;;;;;5071891;28;20044;-39
2022/02/22 04:33:51;;;;;;;0.80;0.80;;;;;;;;;;5071807;28;20631;-39
2022/02/22 04:36:17;;;;;;;1.08;0.77;;;;;;;;;;5071988;28;20029;-38
2022/02/22 04:38:42;;;;;;;1.75;1.00;;;;;;;;;;5072053;28;20030;-39
2022/02/22 04:41:07;;;;;;;3.70;0.95;;;;;;;;;;5071656;28;20519;-39
2022/02/22 04:43:33;;;;;;;1.45;0.90;;;;;;;;;;5072050;28;20032;-39
2022/02/22 04:45:58;;;;;;;4.13;1.15;;;;;;;;;;5071896;28;20040;-39
2022/02/22 04:48:24;;;;;;;1.50;1.00;;;;;;;;;;5071686;28;20103;-39
2022/02/22 04:50:49;;;;;;;1.08;0.80;;;;;;;;;;5071490;28;20032;-39
2022/02/22 04:53:15;;;;;;;0.93;0.80;;;;;;;;;;5071577;28;20463;-39
2022/02/22 04:55:41;;;;;;;2.10;1.10;;;;;;;;;;5071588;28;20028;-39
2022/02/22 04:58:07;;;;;;;3.67;1.20;;;;;;;;;;5071417;28;20013;-39
2022/02/22 05:00:33;;;;;;;1.63;1.05;;;;;;;;;;5071519;28;20031;-39
2022/02/22 05:02:58;;;;;;;5.35;1.30;;;;;;;;;;5071627;28;20024;-39
2022/02/22 05:05:24;;;;;;;1.13;0.95;;;;;;;;;;5071420;28;20055;-39
2022/02/22 05:07:49;;;;;;;1.40;0.90;;;;;;;;;;5071403;28;20028;-39
2022/02/22 05:10:14;;;;;;;1.33;0.98;;;;;;;;;;5071301;28;20035;-39
2022/02/22 05:12:40;;;;;;;1.85;1.00;;;;;;;;;;5071388;28;20028;-39
2022/02/22 05:15:05;;;;;;;2.28;1.20;;;;;;;;;;5071541;28;20043;-39
2022/02/22 05:17:32;;;;;;;1.42;1.13;;;;;;;;;;5071473;28;20091;-40
2022/02/22 05:19:57;;;;;;;1.35;1.25;;;;;;;;;;5071183;28;20032;-39
2022/02/22 05:22:23;;;;;;;2.13;1.88;;;;;;;;;;5071177;28;20077;-39
2022/02/22 05:24:48;;;;;;;1.23;1.02;;;;;;;;;;5071349;28;20060;-39
2022/02/22 05:27:14;;;;;;;2.08;1.42;;;;;;;;;;5071241;28;20498;-39
2022/02/22 05:29:39;;;;;;;0.75;0.70;;;;;;;;;;5071414;28;20043;-39
2022/02/22 05:32:04;;;;;;;1.45;1.25;;;;;;;;;;5070925;28;20101;-39
2022/02/22 05:34:33;;;;;;;1.58;1.33;;;;;;;;;;5071079;28;20028;-39
2022/02/22 05:36:59;;;;;;;2.55;1.60;;;;;;;;;;5071360;28;20481;-39
2022/02/22 05:39:25;;;;;;;0.95;0.93;;;;;;;;;;5071138;28;20029;-39
2022/02/22 05:41:50;;;;;;;1.50;0.98;;;;;;;;;;5071303;28;20035;-39
2022/02/22 05:44:16;;;;;;;2.05;1.23;;;;;;;;;;5070933;28;20064;-39
2022/02/22 05:46:42;;;;;;;1.20;1.10;;;;;;;;;;5071339;28;20032;-39
2022/02/22 05:49:07;;;;;;;2.47;1.20;;;;;;;;;;5071235;28;20538;-39
2022/02/22 05:51:33;;;;;;;3.78;0.98;;;;;;;;;;5071057;28;20478;-39
2022/02/22 05:53:58;;;;;;;1.92;1.13;;;;;;;;;;5071159;28;20028;-39
2022/02/22 05:56:24;;;;;;;2.80;1.30;;;;;;;;;;5071301;28;20378;-39
2022/02/22 05:58:49;;;;;;;0.88;0.85;;;;;;;;;;5070817;28;20039;-39
2022/02/22 06:01:15;;;;;;;1.95;1.23;;;;;;;;;;5073231;28;20046;-39
2022/02/22 06:03:40;;;;;;;1.80;1.50;;;;;;;;;;5075070;28;20454;-39
2022/02/22 06:06:06;;;;;;;1.60;1.50;;;;;;;;;;5074900;28;20074;-39
2022/02/22 06:08:32;;;;;;;1.45;0.98;;;;;;;;;;5074779;28;20078;-39
2022/02/22 06:10:57;;;;;;;2.67;1.58;;;;;;;;;;5074837;28;20021;-39
2022/02/22 06:13:23;;;;;;;7.22;1.27;;;;;;;;;;5074558;28;20042;-39
2022/02/22 06:15:48;;;;;;;2.67;1.27;;;;;;;;;;5074591;28;20366;-39
2022/02/22 06:18:16;;;;;;;1.42;1.10;;;;;;;;;;5074676;28;20028;-39
2022/02/22 06:20:42;;;;;;;3.97;1.23;;;;;;;;;;5074630;28;20096;-39
2022/02/22 06:23:07;;;;;;;0.90;0.90;;;;;;;;;;5074686;28;20139;-39
2022/02/22 06:25:33;;;;;;;3.00;1.23;;;;;;;;;;5074321;28;20541;-39
2022/02/22 06:27:58;;;;;;;1.35;1.10;;;;;;;;;;5074473;28;20024;-39
2022/02/22 06:30:24;;;;;;;1.48;1.13;;;;;;;;;;5074539;28;20020;-39
2022/02/22 06:32:51;;;;;;;2.53;0.90;;;;;;;;;;5074113;28;20409;-39
2022/02/22 06:35:17;;;;;;;1.85;1.27;;;;;;;;;;5074165;28;20123;-39
2022/02/22 06:37:43;;;;;;;0.77;0.77;;;;;;;;;;5074435;28;20036;-39
2022/02/22 06:40:09;;;;;;;1.38;0.88;;;;;;;;;;5074095;28;20073;-39
2022/02/22 06:42:35;;;;;;;1.33;1.20;;;;;;;;;;5074034;28;20077;-41
2022/02/22 06:45:00;;;;;;;2.97;1.35;;;;;;;;;;5074255;28;20025;-38
2022/02/22 06:47:26;;;;;;;4.93;1.35;;;;;;;;;;5074086;28;20024;-39
2022/02/22 06:49:52;;;;;;;1.27;0.80;;;;;;;;;;5074075;28;20024;-39
2022/02/22 06:52:18;;;;;;;2.45;1.00;;;;;;;;;;5074043;28;20028;-39
2022/02/22 06:54:45;;;;;;;2.33;0.95;;;;;;;;;;5073915;28;20380;-39
2022/02/22 06:57:10;;;;;;;1.58;1.20;;;;;;;;;;5073853;28;20025;-39
2022/02/22 06:59:35;;;;;;;1.85;0.85;;;;;;;;;;5074037;28;20031;-39
2022/02/22 07:02:01;;;;;;;1.58;0.90;;;;;;;;;;5073644;28;20111;-39
2022/02/22 07:04:26;;;;;;;2.72;1.05;;;;;;;;;;5073905;28;20029;-38
2022/02/22 07:06:52;;;;;;;2.20;1.45;;;;;;;;;;5073695;28;20115;-39
2022/02/22 07:09:17;;;;;;;1.17;1.02;;;;;;;;;;5073763;28;20370;-39
2022/02/22 07:11:45;;;;;;;2.70;1.20;;;;;;;;;;5073296;28;20368;-39
2022/02/22 07:14:11;;;;;;;1.30;1.00;;;;;;;;;;5073503;28;20059;-39
2022/02/22 07:16:36;;;;;;;1.55;1.45;;;;;;;;;;5073743;28;20032;-39
2022/02/22 07:19:02;;;;;;;1.08;0.98;;;;;;;;;;5073455;28;20024;-38
2022/02/22 07:21:28;;;;;;;0.77;0.77;;;;;;;;;;5073574;28;20387;-39
2022/02/22 07:23:54;;;;;;;1.52;0.90;;;;;;;;;;5073160;28;20013;-39
2022/02/22 07:26:19;;;;;;;1.17;0.98;;;;;;;;;;5073284;28;20536;-39
2022/02/22 07:28:45;;;;;;;3.95;1.67;;;;;;;;;;5073305;28;20025;-38
2022/02/22 07:31:11;;;;;;;1.73;1.20;;;;;;;;;;5072836;28;20067;-39
2022/02/22 07:33:38;;;;;;;13.88;3.78;;;;;;;;;;5073449;28;20025;-39
2022/02/22 07:36:04;;;;;;;11.07;4.70;;;;;;;;;;5073078;28;20036;-39
2022/02/22 07:38:30;;;;;;;1.55;1.13;;;;;;;;;;5073282;28;20450;-39
2022/02/22 07:40:56;;;;;;;1.70;1.13;;;;;;;;;;5072910;28;20112;-39
2022/02/22 07:43:21;;;;;;;4.03;1.85;;;;;;;;;;5073107;28;20020;-39
2022/02/22 07:45:47;;;;;;;10.60;3.20;;;;;;;;;;5072692;28;20109;-39
2022/02/22 07:48:13;;;;;;;1.95;1.42;;;;;;;;;;5072867;28;20470;-39
2022/02/22 07:50:38;;;;;;;2.05;1.10;;;;;;;;;;5072857;28;20024;-39
2022/02/22 07:53:05;;;;;;;1.58;1.20;;;;;;;;;;5072556;28;20024;-39
2022/02/22 07:55:30;;;;;;;1.70;0.98;;;;;;;;;;5072999;28;20029;-39
2022/02/22 07:57:56;;;;;;;1.83;1.35;;;;;;;;;;5072548;28;20024;-39
2022/02/22 08:00:22;;;;;;;1.85;1.23;;;;;;;;;;5072516;28;20037;-39
2022/02/22 08:02:47;;;;;;;1.15;0.82;;;;;;;;;;5072638;28;20027;-39
2022/02/22 08:05:13;;;;;;;1.80;1.20;;;;;;;;;;5072620;28;20131;-39
2022/02/22 08:07:38;;;;;;;1.17;1.08;;;;;;;;;;5072323;28;20052;-39
2022/02/22 08:10:05;;;;;;;1.30;0.80;;;;;;;;;;5072242;28;20036;-39
2022/02/22 08:12:31;;;;;;;1.60;1.08;;;;;;;;;;5072447;28;20021;-39
2022/02/22 08:14:56;;;;;;;1.15;0.90;;;;;;;;;;5072562;28;20382;-39
2022/02/22 08:17:22;;;;;;;1.55;0.90;;;;;;;;;;5072293;28;20012;-39
2022/02/22 08:19:47;;;;;;;0.80;0.80;;;;;;;;;;5072268;28;20074;-39
2022/02/22 08:22:13;;;;;;;2.97;1.65;;;;;;;;;;5072098;28;20016;-39
2022/02/22 08:24:39;;;;;;;1.50;0.90;;;;;;;;;;5071584;28;20390;-39
2022/02/22 08:27:04;;;;;;;1.23;0.90;;;;;;;;;;5072289;28;20110;-39
2022/02/22 08:29:31;;;;;;;1.73;0.88;;;;;;;;;;5071783;28;20429;-39
2022/02/22 08:31:57;;;;;;;1.40;0.90;;;;;;;;;;5071791;28;20040;-39
2022/02/22 08:34:23;;;;;;;2.05;1.25;;;;;;;;;;5072175;28;20032;-39
2022/02/22 08:36:49;;;;;;;0.75;0.65;;;;;;;;;;5071957;28;20702;-39
2022/02/22 08:39:15;;;;;;;1.58;0.55;;;;;;;;;;5071706;28;20040;-39
2022/02/22 08:41:44;;;;;;;1.80;1.00;;;;;;;;;;5072008;28;20029;-39
2022/02/22 08:44:13;;;;;;;1.48;1.20;;;;;;;;;;5071848;28;20043;-39
2022/02/22 08:46:38;;;;;;;0.68;0.68;;;;;;;;;;5071787;28;20024;-39
2022/02/22 08:49:05;;;;;;;0.55;0.52;;;;;;;;;;5071571;28;20113;-39
2022/02/22 08:51:31;;;;;;;2.55;0.73;;;;;;;;;;5071707;28;20474;-39
2022/02/22 08:54:04;;;;;;;1.17;0.60;;;;;;;;;;5071524;28;20033;-39
2022/02/22 08:56:30;;;;;;;0.70;0.70;;;;;;;;;;5071774;28;20123;-39
2022/02/22 08:58:56;;;;;;;1.50;0.75;;;;;;;;;;5071464;28;20024;-39
2022/02/22 09:01:23;;;;;;;1.67;0.63;;;;;;;;;;5071493;28;20094;-39
2022/02/22 09:03:49;;;;;;;0.65;0.50;;;;;;;;;;5070173;28;20587;-39
2022/02/22 09:06:15;;;;;;;0.98;0.88;;;;;;;;;;5070218;28;20033;-39
2022/02/22 09:08:41;;;;;;;0.63;0.63;;;;;;;;;;5071429;28;20024;-39
2022/02/22 09:11:10;;;;;;;0.60;0.50;;;;;;;;;;5071437;28;20494;-39
2022/02/22 09:13:36;;;;;;;0.95;0.65;;;;;;;;;;5071392;28;20020;-39
2022/02/22 09:16:02;;;;;;;0.75;0.40;;;;;;;;;;5070041;28;20032;-39
2022/02/22 09:18:28;;;;;;;0.95;0.57;;;;;;;;;;5071505;28;20024;-39
2022/02/22 09:20:54;;;;;;;0.70;0.50;;;;;;;;;;5071452;28;20042;-39
2022/02/22 09:23:20;;;;;;;2.10;0.90;;;;;;;;;;5071189;28;20059;-39
2022/02/22 09:25:55;;;;;;;0.55;0.40;;;;;;;;;;5071200;28;20043;-39
2022/02/22 09:28:24;;;;;;;0.90;0.65;;;;;;;;;;5069917;28;20035;-39
2022/02/22 09:30:50;;;;;;;0.50;0.50;;;;;;;;;;5071018;28;20012;-39
2022/02/22 09:33:15;;;;;;;1.40;0.65;;;;;;;;;;5071386;28;20064;-39
2022/02/22 09:35:41;;;;;;;0.65;0.55;;;;;;;;;;5072899;28;20060;-39
2022/02/22 09:38:11;;;;;;;0.85;0.85;;;;;;;;;;5075280;28;20020;-39
2022/02/22 09:40:37;;;;;;;0.43;0.43;;;;;;;;;;5075010;28;20028;-39
2022/02/22 09:43:03;;;;;;;1.13;0.65;;;;;;;;;;5075512;28;20047;-39
2022/02/22 09:45:30;;;;;;;0.50;0.50;;;;;;;;;;5075529;28;20032;-39
2022/02/22 09:48:01;;;;;;;2.05;1.45;;;;;;;;;;5074724;28;20033;-39
2022/02/22 09:50:27;;;;;;;0.73;0.68;;;;;;;;;;5075090;28;20028;-39
2022/02/22 09:52:54;;;;;;;0.30;0.30;;;;;;;;;;5074981;28;20433;-39
2022/02/22 09:55:20;;;;;;;0.40;0.40;;;;;;;;;;5075020;28;20032;-39
2022/02/22 09:57:46;;;;;;;0.50;0.35;;;;;;;;;;5075065;28;20043;-39
2022/02/22 10:00:15;;;;;;;0.50;0.50;;;;;;;;;;5074695;28;20063;-39
2022/02/22 10:02:41;;;;;;;0.90;0.55;;;;;;;;;;5074870;28;20372;-39
2022/02/22 10:05:21;;;;;;;0.90;0.65;;;;;;;;;;5074667;28;20035;-39
2022/02/22 10:07:50;;;;;;;0.80;0.60;;;;;;;;;;5074810;28;20021;-39
2022/02/22 10:10:16;;;;;;;0.30;0.30;;;;;;;;;;5074640;28;20458;-39
2022/02/22 10:12:42;;;;;;;0.90;0.52;;;;;;;;;;5074947;28;20024;-39
2022/02/22 10:15:11;;;;;;;0.52;0.52;;;;;;;;;;5074536;28;20111;-39
2022/02/22 10:17:40;;;;;;;0.30;0.30;;;;;;;;;;5074570;28;20118;-39
2022/02/22 10:20:13;;;;;;;0.98;0.50;;;;;;;;;;5074407;28;20093;-39
2022/02/22 10:22:39;;;;;;;;;;;;;;;;;;5074865;28;20024;-39
2022/02/22 10:25:07;;;;;;;0.60;0.60;;;;;;;;;;5073370;28;19913;-39
2022/02/22 10:27:53;;;;;;;0.65;0.50;;;;;;;;;;5074486;28;20032;-39
2022/02/22 10:30:41;;;;;;;0.65;0.50;;;;;;;;;;5074123;28;20502;-39
2022/02/22 10:33:14;;;;;;;0.93;0.52;;;;;;;;;;5074310;28;20076;-39
2022/02/22 10:35:41;;;;;;;0.60;0.52;;;;;;;;;;5074141;28;20036;-39
2022/02/22 10:38:26;;;;;;;5.28;0.80;;;;;;;;;;5074083;28;20529;-39
2022/02/22 10:41:16;;;;;;;0.70;0.60;;;;;;;;;;5073876;28;20036;-39
2022/02/22 10:43:54;;;;;;;0.60;0.60;;;;;;;;;;5064828;28;20040;-39
2022/02/22 10:46:27;;;;;;;1.10;0.45;;;;;;;;;;5072487;28;20032;-39
2022/02/22 10:49:01;;;;;;;0.40;0.40;;;;;;;;;;5073968;28;20029;-39
2022/02/22 10:51:41;;;;;;;0.50;0.50;;;;;;;;;;5073846;28;20071;-39
2022/02/22 10:54:15;;;;;;;0.40;0.40;;;;;;;;;;5074014;28;20107;-39
2022/02/22 10:56:42;;;;;;;1.88;0.60;;;;;;;;;;5074124;28;20534;-39
2022/02/22 10:59:11;;;;;;;0.30;0.30;;;;;;;;;;5073748;28;20024;-39
2022/02/22 11:01:38;;;;;;;0.35;0.35;;;;;;;;;;5073782;28;20081;-39
2022/02/22 11:04:09;;;;;;;0.70;0.50;;;;;;;;;;5073473;28;20442;-39
2022/02/22 11:06:38;;;;;;;1.05;0.30;;;;;;;;;;5073692;28;20028;-39
2022/02/22 11:09:10;;;;;;;0.73;0.40;;;;;;;;;;5073830;28;20029;-39
2022/02/22 11:11:41;;;;;;;0.77;0.50;;;;;;;;;;5073564;28;20025;-39
2022/02/22 11:14:08;;;;;;;0.82;0.43;;;;;;;;;;5073751;28;20082;-39
2022/02/22 11:16:53;;;;;;;0.40;0.40;;;;;;;;;;5072233;28;20491;-39
2022/02/22 11:19:19;;;;;;;0.20;0.20;;;;;;;;;;5073329;28;20024;-39
2022/02/22 11:21:47;;;;;;;0.30;0.30;;;;;;;;;;5073483;28;20019;-39
2022/02/22 11:24:14;;;;;;;0.30;0.30;;;;;;;;;;5073289;28;20490;-39
2022/02/22 11:26:45;;;;;;;0.75;0.47;;;;;;;;;;5073311;28;20100;-39
2022/02/22 11:29:11;;;;;;;0.30;0.30;;;;;;;;;;5073545;28;20028;-39
2022/02/22 11:31:36;;;;;;;0.57;0.57;;;;;;;;;;5073088;28;20518;-39
2022/02/22 11:34:03;;;;;;;0.22;0.22;;;;;;;;;;5073411;28;20032;-40
2022/02/22 11:36:30;;;;;;;0.30;0.22;;;;;;;;;;5073448;28;20067;-39
2022/02/22 11:38:56;;;;;;;0.40;0.40;;;;;;;;;;5073189;28;20028;-39
2022/02/22 11:41:24;;;;;;;0.63;0.30;;;;;;;;;;5072976;28;20085;-39
2022/02/22 11:44:04;;;;;;;0.63;0.60;;;;;;;;;;5073184;28;20470;-39
2022/02/22 11:46:38;;;;;;;0.22;0.22;;;;;;;;;;5073289;28;20039;-39
2022/02/22 11:49:05;;;;;;;0.22;0.22;;;;;;;;;;5072779;28;20032;-39
2022/02/22 11:51:44;;;;;;;0.25;0.20;;;;;;;;;;5073055;28;20490;-39
2022/02/22 11:54:19;;;;;;;0.40;0.30;;;;;;;;;;5072681;28;20081;-39
2022/02/22 11:56:45;;;;;;;0.20;0.20;;;;;;;;;;5072779;28;20082;-39
2022/02/22 11:59:18;;;;;;;0.10;0.10;;;;;;;;;;5071682;28;20024;-39
2022/02/22 12:01:50;;;;;;;0.20;0.20;;;;;;;;;;5072670;28;20077;-39
2022/02/22 12:04:20;;;;;;;0.77;0.30;;;;;;;;;;5072463;28;20423;-39
2022/02/22 12:06:47;;;;;;;0.20;0.20;;;;;;;;;;5072829;28;20526;-39
2022/02/22 12:09:13;;;;;;;0.30;0.30;;;;;;;;;;5072293;28;20111;-39
2022/02/22 12:11:38;;;;;;;0.28;0.28;;;;;;;;;;5072474;28;20100;-39
2022/02/22 12:14:09;;;;;;;0.22;0.22;;;;;;;;;;5072660;28;20032;-39
2022/02/22 12:16:40;;;;;;;0.32;0.32;;;;;;;;;;5072559;28;20120;-39
2022/02/22 12:19:07;;;;;;;0.20;0.20;;;;;;;;;;5070957;28;20078;-39
2022/02/22 12:21:34;;;;;;;0.20;0.20;;;;;;;;;;5072443;28;20442;-39
2022/02/22 12:24:03;;;;;;;0.22;0.22;;;;;;;;;;5071997;28;20075;-39
2022/02/22 12:26:29;;;;;;;0.30;0.30;;;;;;;;;;5072406;28;20383;-39
2022/02/22 12:29:03;;;;;;;0.20;0.20;;;;;;;;;;5072053;28;20040;-39
2022/02/22 12:31:34;;;;;;;1.38;0.30;;;;;;;;;;5071811;28;20449;-39
2022/02/22 12:34:00;;;;;;;0.20;0.20;;;;;;;;;;5071918;28;20024;-39
2022/02/22 12:36:27;;;;;;;0.20;0.20;;;;;;;;;;5071943;28;20091;-39
2022/02/22 12:38:59;;;;;;;0.20;0.20;;;;;;;;;;5071941;28;20065;-39
2022/02/22 12:41:28;;;;;;;0.30;0.30;;;;;;;;;;5071930;28;20024;-39
2022/02/22 12:43:56;;;;;;;0.20;0.20;;;;;;;;;;5071695;28;20495;-39
2022/02/22 12:46:22;;;;;;;0.22;0.20;;;;;;;;;;5071739;28;20125;-39
2022/02/22 12:48:47;;;;;;;5.18;0.35;;;;;;;;;;5071934;28;20067;-39
2022/02/22 12:51:20;;;;;;;0.82;0.25;;;;;;;;;;5071830;28;20529;-39
2022/02/22 12:54:06;;;;;;;0.17;0.17;;;;;;;;;;5071672;28;20107;-39
2022/02/22 12:56:33;;;;;;;0.20;0.20;;;;;;;;;;5071926;28;20071;-39
2022/02/22 12:58:59;;;;;;;0.10;0.10;;;;;;;;;;5071381;28;20024;-39
2022/02/22 13:01:27;;;;;;;0.20;0.20;;;;;;;;;;5071600;28;20059;-39
2022/02/22 13:03:53;;;;;;;0.20;0.20;;;;;;;;;;5071840;28;20024;-39
2022/02/22 13:06:18;;;;;;;0.60;0.25;;;;;;;;;;5071276;28;20041;-39
2022/02/22 13:08:45;;;;;;;0.40;0.30;;;;;;;;;;5071491;28;20086;-39
2022/02/22 13:11:11;;;;;;;0.88;0.32;;;;;;;;;;5071479;28;20434;-39
2022/02/22 13:13:36;;;;;;;0.38;0.38;;;;;;;;;;5070487;28;20040;-39
2022/02/22 13:16:12;;;;;;;0.20;0.20;;;;;;;;;;5071367;28;20364;-39
2022/02/22 13:18:49;;;;;;;0.17;0.17;;;;;;;;;;5071654;28;20032;-40
2022/02/22 13:21:15;;;;;;;0.35;0.35;;;;;;;;;;5071247;28;20078;-39
2022/02/22 13:23:41;;;;;;;0.30;0.30;;;;;;;;;;5071665;28;20024;-39
2022/02/22 13:26:06;;;;;;;0.20;0.20;;;;;;;;;;5071170;28;20024;-39
2022/02/22 13:28:33;;;;;;;0.10;0.10;;;;;;;;;;5071248;28;20371;-39
2022/02/22 13:31:02;;;;;;;0.10;0.10;;;;;;;;;;5070927;28;20047;-39
2022/02/22 13:33:28;;;;;;;3.40;0.20;;;;;;;;;;5071170;28;20146;-39
2022/02/22 13:35:55;;;;;;;0.20;0.20;;;;;;;;;;5069998;28;20492;-39
2022/02/22 13:38:22;;;;;;;0.20;0.20;;;;;;;;;;5071117;28;20025;-39
2022/02/22 13:40:48;;;;;;;0.35;0.20;;;;;;;;;;5070969;28;20024;-39
2022/02/22 13:43:14;;;;;;;0.25;0.25;;;;;;;;;;5071044;28;20024;-39
2022/02/22 13:45:49;;;;;;;0.20;0.20;;;;;;;;;;5070939;28;20051;-39
2022/02/22 13:48:17;;;;;;;0.57;0.35;;;;;;;;;;5071236;28;20461;-39
2022/02/22 13:50:43;;;;;;;0.20;0.20;;;;;;;;;;5069722;28;20466;-39
2022/02/22 13:53:13;;;;;;;0.10;0.10;;;;;;;;;;5071010;28;20062;-39
2022/02/22 13:55:50;;;;;;;0.20;0.20;;;;;;;;;;5070891;28;20070;-39
2022/02/22 13:58:21;;;;;;;0.55;0.22;;;;;;;;;;5070928;28;20056;-39
2022/02/22 14:00:47;;;;;;;0.10;0.10;;;;;;;;;;5071194;28;20062;-39
2022/02/22 14:03:13;;;;;;;0.22;0.20;;;;;;;;;;5070702;28;20028;-39
2022/02/22 14:05:39;;;;;;;1.08;0.30;;;;;;;;;;5071110;28;20481;-39
2022/02/22 14:08:11;;;;;;;1.05;0.65;;;;;;;;;;5071074;28;20082;-39
2022/02/22 14:10:41;;;;;;;0.20;0.20;;;;;;;;;;5071146;28;20033;-39
2022/02/22 14:13:08;;;;;;;0.22;0.20;;;;;;;;;;5069473;28;20478;-39
2022/02/22 14:15:34;;;;;;;0.20;0.20;;;;;;;;;;5070923;28;20475;-39
2022/02/22 14:17:59;;;;;;;0.20;0.20;;;;;;;;;;5070660;28;20040;-39
2022/02/22 14:20:26;;;;;;;0.45;0.40;;;;;;;;;;5070709;28;20103;-39
2022/02/22 14:22:55;;;;;;;0.20;0.20;;;;;;;;;;5073897;28;20029;-40
2022/02/22 14:25:21;;;;;;;0.17;0.17;;;;;;;;;;5074332;28;20032;-39
2022/02/22 14:27:47;;;;;;;0.40;0.30;;;;;;;;;;5074716;28;20082;-39
2022/02/22 14:30:14;;;;;;;0.28;0.20;;;;;;;;;;5074604;28;20440;-39
2022/02/22 14:32:40;;;;;;;0.50;0.50;;;;;;;;;;5074194;28;20080;-39
2022/02/22 14:35:06;;;;;;;0.20;0.20;;;;;;;;;;5074404;28;20024;-39
2022/02/22 14:37:32;;;;;;;0.85;0.20;;;;;;;;;;5074157;28;20041;-39
2022/02/22 14:39:57;;;;;;;0.13;0.13;;;;;;;;;;5074165;28;20028;-39
2022/02/22 14:42:23;;;;;;;0.10;0.10;;;;;;;;;;5074102;28;20097;-39